Terminal Aerodrome Forecast
Issued by NWS Milwaukee/Sullivan, WI

Home | Current Version | Previous Version | Text Only | Print | Product List | Glossary On
Versions: 1 2 3 4 5 6 7 8 9 10 11 12 13 14 15 16 17 18 19 20 21 22 23 24 25 26 27 28 29
000
FTUS43 KMKX 270246 AAA
TAFMKE
TAF AMD
KMKE 270246Z 2703/2806 00000KT P6SM BKN250
     FM270800 00000KT 5SM BR BKN250
     FM271300 16004KT P6SM SHRA VCTS SCT030 BKN050CB
     FM271800 16011KT P6SM SHRA VCTS BKN035CB=

USA.gov is the U.S. government's official web portal to all federal, state and local government web resources and services.